Time;durP1;ratioP1;P1;durP2;ratioP2;P2;SDS_P1;SDS_P2;PMS_P1;PMS_P2;Temp;Humidity;BMP_temperature;BMP_pressure;BME280_temperature;BME280_humidity;BME280_pressure;Samples;Min_cycle;Max_cycle;Signal;HPM_P1;HPM_P2
2023/03/07 00:01:33;;;;;;;6.77;3.93;;;;;;;;;;5073547;28;20444;-70
2023/03/07 00:04:00;;;;;;;13.03;4.47;;;;;;;;;;5073865;28;20448;-69
2023/03/07 00:06:29;;;;;;;6.70;3.73;;;;;;;;;;5073792;28;20484;-71
2023/03/07 00:08:57;;;;;;;7.07;4.10;;;;;;;;;;5073269;28;20447;-70
2023/03/07 00:11:24;;;;;;;5.43;4.60;;;;;;;;;;5073605;28;20444;-70
2023/03/07 00:13:52;;;;;;;6.13;4.37;;;;;;;;;;5073200;28;20439;-69
2023/03/07 00:16:20;;;;;;;8.83;4.30;;;;;;;;;;5073706;28;20438;-70
2023/03/07 00:18:47;;;;;;;6.60;3.60;;;;;;;;;;5073627;28;20438;-68
2023/03/07 00:21:15;;;;;;;5.30;3.13;;;;;;;;;;5073580;28;20470;-70
2023/03/07 00:23:44;;;;;;;8.00;3.70;;;;;;;;;;5074049;28;20437;-70
2023/03/07 00:26:12;;;;;;;7.60;4.20;;;;;;;;;;5073467;28;20845;-70
2023/03/07 00:28:39;;;;;;;10.90;4.20;;;;;;;;;;5073851;28;20788;-70
2023/03/07 00:31:07;;;;;;;7.67;3.47;;;;;;;;;;5071732;28;20850;-69
2023/03/07 00:33:35;;;;;;;11.97;4.30;;;;;;;;;;5073119;28;20449;-70
2023/03/07 00:36:03;;;;;;;8.17;3.37;;;;;;;;;;5072403;28;20795;-70
2023/03/07 00:38:31;;;;;;;6.87;3.90;;;;;;;;;;5072058;28;20441;-69
2023/03/07 00:41:00;;;;;;;6.90;2.50;;;;;;;;;;5072257;28;20440;-70
2023/03/07 00:43:27;;;;;;;8.73;5.03;;;;;;;;;;5073412;28;20438;-70
2023/03/07 00:45:55;;;;;;;8.53;4.60;;;;;;;;;;5072716;28;20485;-70
2023/03/07 00:48:22;;;;;;;7.03;3.00;;;;;;;;;;5073413;28;20459;-70
2023/03/07 00:50:49;;;;;;;14.87;3.97;;;;;;;;;;5072534;28;20788;-69
2023/03/07 00:53:16;;;;;;;7.13;4.37;;;;;;;;;;5073269;28;20446;-70
2023/03/07 00:55:43;;;;;;;2.90;2.60;;;;;;;;;;5073368;28;20442;-70
2023/03/07 00:58:12;;;;;;;7.93;4.57;;;;;;;;;;5072691;28;20445;-70
2023/03/07 01:00:39;;;;;;;4.17;2.40;;;;;;;;;;5072425;28;20442;-69
2023/03/07 01:03:06;;;;;;;4.63;3.20;;;;;;;;;;5072513;28;20794;-69
2023/03/07 01:05:33;;;;;;;7.37;3.10;;;;;;;;;;5073073;28;20473;-70
2023/03/07 01:08:00;;;;;;;5.30;3.57;;;;;;;;;;5072554;28;20793;-69
2023/03/07 01:10:28;;;;;;;7.40;2.70;;;;;;;;;;5072777;28;20445;-70
2023/03/07 01:12:55;;;;;;;4.67;2.87;;;;;;;;;;5072379;28;20447;-70
2023/03/07 01:15:24;;;;;;;4.50;3.20;;;;;;;;;;5073107;28;20557;-70
2023/03/07 01:17:51;;;;;;;8.47;3.87;;;;;;;;;;5071881;28;20455;-70
2023/03/07 01:20:18;;;;;;;4.40;3.00;;;;;;;;;;5072555;28;20448;-70
2023/03/07 01:22:46;;;;;;;5.50;3.20;;;;;;;;;;5073113;28;20797;-70
2023/03/07 01:25:13;;;;;;;5.33;3.03;;;;;;;;;;5072897;28;20505;-70
2023/03/07 01:27:40;;;;;;;4.70;2.43;;;;;;;;;;5072619;28;20789;-70
2023/03/07 01:30:08;;;;;;;9.20;4.60;;;;;;;;;;5071442;28;20452;-69
2023/03/07 01:32:36;;;;;;;3.73;2.13;;;;;;;;;;5072341;28;20442;-69
2023/03/07 01:35:04;;;;;;;4.60;3.23;;;;;;;;;;5061693;28;20437;-69
2023/03/07 01:37:31;;;;;;;4.93;2.80;;;;;;;;;;5072473;28;20447;-69
2023/03/07 01:39:58;;;;;;;8.40;3.87;;;;;;;;;;5072012;28;20450;-69
2023/03/07 01:42:25;;;;;;;7.77;2.50;;;;;;;;;;5071936;28;20434;-69
2023/03/07 01:45:00;;;;;;;4.70;3.77;;;;;;;;;;5071483;28;20476;-69
2023/03/07 01:47:28;;;;;;;4.83;2.60;;;4.60;1.00;;;;;;5072111;28;20436;-70
2023/03/07 01:49:57;;;;;;;5.77;2.57;;;4.10;99.90;;;;;;5071569;28;20790;-70
2023/03/07 01:52:28;;;;;;;5.27;3.70;;;4.00;99.90;;;;;;5071739;28;20457;-70
2023/03/07 01:54:59;;;;;;;4.30;3.40;;;4.10;99.90;;;;;;5071420;28;20524;-70
2023/03/07 01:57:32;;;;;;;4.47;2.93;;;4.20;99.90;;;;;;5059022;28;20437;-70
2023/03/07 02:00:07;;;;;;;3.67;2.70;;;4.20;99.90;;;;;;5071490;28;20500;-70
2023/03/07 02:02:35;;;;;;;3.80;2.60;;;4.20;99.90;;;;;;5071834;28;20441;-70
2023/03/07 02:05:08;;;;;;;5.63;3.43;;;4.30;99.90;;;;;;5071267;28;20441;-70
2023/03/07 02:07:38;;;;;;;8.10;3.47;;;4.30;99.90;;;;;;5072012;28;20448;-70
2023/03/07 02:10:06;;;;;;;6.07;3.47;;;4.40;99.90;;;;;;5070769;28;20430;-70
2023/03/07 02:12:34;;;;;;;4.30;2.30;;;4.30;99.90;;;;;;5072132;28;20462;-70
2023/03/07 02:15:01;;;;;;;4.93;2.57;;;4.10;99.90;;;;;;5071155;28;20452;-70
2023/03/07 02:17:27;;;;;;;5.73;4.07;;;4.20;99.90;;;;;;5071616;28;20833;-70
2023/03/07 02:20:04;;;;;;;4.93;3.17;;;;;;;;;;5070783;28;20437;-70
2023/03/07 02:22:32;;;;;;;3.13;2.50;;;;;;;;;;5071724;28;20523;-70
2023/03/07 02:25:02;;;;;;;8.70;4.43;;;;;;;;;;5070770;28;20451;-70
2023/03/07 02:27:32;;;;;;;17.23;4.70;;;;;;;;;;5071462;28;20446;-70
2023/03/07 02:29:59;;;;;;;8.07;3.27;;;;;;;;;;5070293;28;20537;-69
2023/03/07 02:32:26;;;;;;;5.83;4.37;;;;;;;;;;5071350;28;20465;-70
2023/03/07 02:34:53;;;;;;;5.90;3.63;;;;;;;;;;5070929;28;20781;-70
2023/03/07 02:37:22;;;;;;;4.63;3.03;;;;;;;;;;5071369;28;20448;-69
2023/03/07 02:39:49;;;;;;;7.17;3.73;;;;;;;;;;5070954;28;20438;-70
2023/03/07 02:42:17;;;;;;;6.53;2.97;;;;;;;;;;5071024;28;20445;-70
2023/03/07 02:44:46;;;;;;;6.10;3.53;;;;;;;;;;5070774;28;20481;-70
2023/03/07 02:47:13;;;;;;;8.00;3.17;;;;;;;;;;5070971;28;20471;-70
2023/03/07 02:49:41;;;;;;;7.23;3.53;;;;;;;;;;5070182;28;20459;-70
2023/03/07 02:52:08;;;;;;;7.37;4.10;;;;;;;;;;5069599;28;20455;-70
2023/03/07 02:54:35;;;;;;;5.30;3.20;;;;;;;;;;5070905;28;20457;-70
2023/03/07 02:57:03;;;;;;;4.57;3.63;;;;;;;;;;5070523;28;20449;-70
2023/03/07 02:59:30;;;;;;;7.20;3.30;;;;;;;;;;5070980;28;21000;-70
2023/03/07 03:01:58;;;;;;;7.10;4.87;;;;;;;;;;5069204;28;20442;-70
2023/03/07 03:04:26;;;;;;;4.97;3.90;;;;;;;;;;5070982;28;20786;-70
2023/03/07 03:06:53;;;;;;;7.83;3.03;;;;;;;;;;5071783;28;20475;-70
2023/03/07 03:09:20;;;;;;;5.40;2.87;;;;;;;;;;5070545;28;20871;-70
2023/03/07 03:11:47;;;;;;;7.37;3.57;;;;;;;;;;5069932;28;20440;-68
2023/03/07 03:14:14;;;;;;;6.80;3.87;;;;;;;;;;5071179;28;20443;-70
2023/03/07 03:16:41;;;;;;;6.93;3.20;;;;;;;;;;5070994;28;20444;-70
2023/03/07 03:19:09;;;;;;;7.40;3.77;;;;;;;;;;5070391;28;20445;-70
2023/03/07 03:21:37;;;;;;;4.63;3.40;;;;;;;;;;5070511;28;20445;-70
2023/03/07 03:24:05;;;;;;;5.00;3.40;;;;;;;;;;5070220;28;20471;-70
2023/03/07 03:26:32;;;;;;;8.23;4.17;;;;;;;;;;5070916;28;20839;-70
2023/03/07 03:28:59;;;;;;;8.20;4.83;;;;;;;;;;5070446;28;20442;-70
2023/03/07 03:31:27;;;;;;;4.43;2.50;;;;;;;;;;5070622;28;20446;-70
2023/03/07 03:33:55;;;;;;;9.83;6.33;;;;;;;;;;5070092;28;20447;-69
2023/03/07 03:36:24;;;;;;;5.20;1.90;;;;;;;;;;5070832;28;20441;-70
2023/03/07 03:38:52;;;;;;;5.47;3.30;;;;;;;;;;5070180;28;20792;-69
2023/03/07 03:41:19;;;;;;;7.13;3.67;;;;;;;;;;5070116;28;20448;-70
2023/03/07 03:43:47;;;;;;;7.83;3.60;;;;;;;;;;5070232;28;20437;-68
2023/03/07 03:46:15;;;;;;;8.47;3.50;;;;;;;;;;5070552;28;20507;-70
2023/03/07 03:48:43;;;;;;;4.73;3.03;;;;;;;;;;5070586;28;20437;-70
2023/03/07 03:51:13;;;;;;;5.53;3.07;;;;;;;;;;5069797;28;20885;-70
2023/03/07 03:53:42;;;;;;;5.23;3.10;;;;;;;;;;5070994;28;20437;-70
2023/03/07 03:56:10;;;;;;;4.37;2.67;;;;;;;;;;5070145;28;20543;-69
2023/03/07 03:58:38;;;;;;;4.60;4.13;;;;;;;;;;5070544;28;20441;-70
2023/03/07 04:01:06;;;;;;;9.13;3.93;;;;;;;;;;5069746;28;20448;-69
2023/03/07 04:03:33;;;;;;;4.90;3.43;;;;;;;;;;5070117;28;20450;-69
2023/03/07 04:06:01;;;;;;;6.60;3.80;;;;;;;;;;5069943;28;20500;-69
2023/03/07 04:08:28;;;;;;;11.87;4.73;;;;;;;;;;5070463;28;20552;-69
2023/03/07 04:10:57;;;;;;;3.53;2.30;;;;;;;;;;5069590;28;20437;-70
2023/03/07 04:13:24;;;;;;;6.13;3.47;;;;;;;;;;5073302;28;20440;-69
2023/03/07 04:15:53;;;;;;;5.30;3.63;;;;;;;;;;5073183;28;20493;-69
2023/03/07 04:18:20;;;;;;;7.20;4.47;;;;;;;;;;5073960;28;20494;-69
2023/03/07 04:20:49;;;;;;;4.43;4.03;;;;;;;;;;5073078;28;20433;-69
2023/03/07 04:23:16;;;;;;;5.43;3.33;;;;;;;;;;5074034;28;20515;-69
2023/03/07 04:25:47;;;;;;;4.10;3.10;;;;;;;;;;5073560;28;20445;-69
2023/03/07 04:28:16;;;;;;;7.77;3.90;;;;;;;;;;5074010;28;20450;-69
2023/03/07 04:30:43;;;;;;;4.80;2.57;;;;;;;;;;5073215;28;20919;-69
2023/03/07 04:33:10;;;;;;;4.53;3.30;;;;;;;;;;5059619;28;20461;-71
2023/03/07 04:35:37;;;;;;;7.67;3.30;;;;;;;;;;5073331;28;20446;-69
2023/03/07 04:38:04;;;;;;;5.23;3.13;;;;;;;;;;5073048;28;20449;-69
2023/03/07 04:40:31;;;;;;;5.00;2.33;;;;;;;;;;5073041;28;20445;-68
2023/03/07 04:42:58;;;;;;;5.10;3.60;;;;;;;;;;5072973;28;20453;-69
2023/03/07 04:45:27;;;;;;;3.17;2.90;;;;;;;;;;5073061;28;20485;-69
2023/03/07 04:47:54;;;;;;;5.23;2.87;;;;;;;;;;5072687;28;20480;-69
2023/03/07 04:50:21;;;;;;;7.33;3.83;;;;;;;;;;5072458;28;20514;-70
2023/03/07 04:52:49;;;;;;;6.13;4.87;;;;;;;;;;5072361;28;20769;-69
2023/03/07 04:55:16;;;;;;;8.97;3.57;;;;;;;;;;5073052;28;20943;-69
2023/03/07 04:57:43;;;;;;;5.27;3.07;;;;;;;;;;5072481;28;20446;-70
2023/03/07 05:00:11;;;;;;;4.83;3.80;;;;;;;;;;5069181;28;20817;-70
2023/03/07 05:02:39;;;;;;;9.73;5.43;;;;;;;;;;5062876;28;20778;-70
2023/03/07 05:05:07;;;;;;;5.87;3.77;;;;;;;;;;5072367;28;20484;-69
2023/03/07 05:07:34;;;;;;;6.87;4.63;;;;;;;;;;5072721;28;20465;-70
2023/03/07 05:10:01;;;;;;;7.67;4.10;;;;;;;;;;5071889;28;20449;-69
2023/03/07 05:12:28;;;;;;;8.80;3.47;;;;;;;;;;5072977;28;20437;-70
2023/03/07 05:14:55;;;;;;;3.30;3.00;;;;;;;;;;5071906;28;20458;-69
2023/03/07 05:17:22;;;;;;;5.87;3.47;;;;;;;;;;5072358;28;20528;-69
2023/03/07 05:19:51;;;;;;;5.23;4.10;;;;;;;;;;5071643;28;20449;-69
2023/03/07 05:22:18;;;;;;;8.47;4.60;;;;;;;;;;5072754;28;20441;-69
2023/03/07 05:24:45;;;;;;;4.70;3.80;;;;;;;;;;5072240;28;20442;-69
2023/03/07 05:27:12;;;;;;;6.07;4.23;;;;;;;;;;5072486;28;20991;-70
2023/03/07 05:29:39;;;;;;;6.43;3.83;;;;;;;;;;5072289;28;20450;-69
2023/03/07 05:32:07;;;;;;;6.47;4.57;;;;;;;;;;5071807;28;20447;-70
2023/03/07 05:34:34;;;;;;;8.70;3.83;;;;;;;;;;5072422;28;20440;-70
2023/03/07 05:37:02;;;;;;;7.70;4.97;;;;;;;;;;5071731;28;20766;-69
2023/03/07 05:39:29;;;;;;;6.03;3.50;;;;;;;;;;5071912;28;20454;-70
2023/03/07 05:41:57;;;;;;;6.37;3.33;;;;;;;;;;5069582;28;20438;-69
2023/03/07 05:44:24;;;;;;;6.80;3.40;;;;;;;;;;5071834;28;20445;-71
2023/03/07 05:46:51;;;;;;;9.80;3.60;;;;;;;;;;5071469;28;20947;-69
2023/03/07 05:49:18;;;;;;;5.33;3.83;;;;;;;;;;5071805;28;20778;-72
2023/03/07 05:51:45;;;;;;;6.20;4.13;;;;;;;;;;5072007;28;20437;-69
2023/03/07 05:54:13;;;;;;;6.97;3.90;;;;;;;;;;5072103;28;20453;-69
2023/03/07 05:56:40;;;;;;;6.63;4.23;;;;;;;;;;5071616;28;20464;-69
2023/03/07 05:59:10;;;;;;;9.87;3.90;;;;;;;;;;5071765;28;20437;-68
2023/03/07 06:01:37;;;;;;;13.57;5.03;;;;;;;;;;5071918;28;20442;-69
2023/03/07 06:04:04;;;;;;;5.70;3.23;;;;;;;;;;5071677;28;20433;-69
2023/03/07 06:06:31;;;;;;;4.10;3.07;;;;;;;;;;5072035;28;20477;-69
2023/03/07 06:08:58;;;;;;;5.67;3.43;;;;;;;;;;5071340;28;20453;-69
2023/03/07 06:11:26;;;;;;;6.60;3.20;;;;;;;;;;5073449;28;20437;-69
2023/03/07 06:13:54;;;;;;;5.83;3.70;;;;;;;;;;5071327;28;20448;-71
2023/03/07 06:16:21;;;;;;;6.87;4.57;;;;;;;;;;5071903;28;20443;-68
2023/03/07 06:18:48;;;;;;;7.27;3.20;;;;;;;;;;5071287;28;20437;-68
2023/03/07 06:21:16;;;;;;;8.77;4.20;;;;;;;;;;5071489;28;20457;-69
2023/03/07 06:23:44;;;;;;;12.90;4.53;;;;;;;;;;5072094;28;20446;-69
2023/03/07 06:26:11;;;;;;;6.30;4.50;;;;;;;;;;5071300;28;20529;-69
2023/03/07 06:28:40;;;;;;;7.00;4.27;;;;;;;;;;5071773;28;20534;-71
2023/03/07 06:31:11;;;;;;;4.53;3.47;;;;;;;;;;5070766;28;20448;-71
2023/03/07 06:33:38;;;;;;;6.80;3.83;;;;;;;;;;5071700;28;20435;-71
2023/03/07 06:36:06;;;;;;;5.50;2.60;;;;;;;;;;5070035;28;20529;-69
2023/03/07 06:38:33;;;;;;;6.07;3.27;;;;;;;;;;5071672;28;20528;-68
2023/03/07 06:41:00;;;;;;;6.70;4.00;;;;;;;;;;5070748;28;20445;-68
2023/03/07 06:43:27;;;;;;;5.60;3.37;;;;;;;;;;5071571;28;20462;-68
2023/03/07 06:45:56;;;;;;;7.17;4.37;;;;;;;;;;5070385;28;20478;-67
2023/03/07 06:48:23;;;;;;;5.13;2.67;;;;;;;;;;5071080;28;21006;-68
2023/03/07 06:50:50;;;;;;;7.00;3.83;;;;;;;;;;5070424;28;20445;-71
2023/03/07 06:53:17;;;;;;;6.87;3.70;;;;;;;;;;5071127;28;20443;-72
2023/03/07 06:55:48;;;;;;;5.97;3.73;;;;;;;;;;5071657;28;20437;-73
2023/03/07 06:58:15;;;;;;;6.17;3.83;;;;;;;;;;5070647;28;20502;-72
2023/03/07 07:00:43;;;;;;;6.30;3.13;;;;;;;;;;5071171;28;20939;-72
2023/03/07 07:03:12;;;;;;;5.10;2.83;;;;;;;;;;5070498;28;20436;-72
2023/03/07 07:05:40;;;;;;;6.40;3.00;;;;;;;;;;5071306;28;20443;-72
2023/03/07 07:08:07;;;;;;;3.83;2.80;;;;;;;;;;5064886;28;21015;-72
2023/03/07 07:10:34;;;;;;;4.73;2.80;;;;;;;;;;5071443;28;20437;-72
2023/03/07 07:13:01;;;;;;;6.00;3.90;;;;;;;;;;5070683;28;20450;-72
2023/03/07 07:15:28;;;;;;;5.50;4.33;;;;;;;;;;5071427;28;20779;-72
2023/03/07 07:17:55;;;;;;;9.30;3.50;;;;;;;;;;5070237;28;20456;-72
2023/03/07 07:20:23;;;;;;;6.63;3.60;;;;;;;;;;5071079;28;20449;-71
2023/03/07 07:22:51;;;;;;;6.30;4.30;;;;;;;;;;5070456;28;20446;-72
2023/03/07 07:25:18;;;;;;;3.43;2.70;;;;;;;;;;5070696;28;20448;-71
2023/03/07 07:27:45;;;;;;;8.43;3.93;;;;;;;;;;5070733;28;20479;-72
2023/03/07 07:30:12;;;;;;;4.80;3.30;;;;;;;;;;5071294;28;20803;-72
2023/03/07 07:32:39;;;;;;;5.97;3.90;;;;;;;;;;5071131;28;20442;-71
2023/03/07 07:35:07;;;;;;;2.83;2.40;;;;;;;;;;5070526;28;20736;-71
2023/03/07 07:37:35;;;;;;;4.53;3.20;;;;;;;;;;5070336;28;20945;-73
2023/03/07 07:40:03;;;;;;;3.27;2.77;;;;;;;;;;5070537;28;20438;-72
2023/03/07 07:42:31;;;;;;;5.10;3.13;;;;;;;;;;5070900;28;20522;-73
2023/03/07 07:44:58;;;;;;;4.07;3.23;;;;;;;;;;5070219;28;21001;-73
2023/03/07 07:47:25;;;;;;;5.97;2.80;;;;;;;;;;5071711;28;20484;-73
2023/03/07 07:49:52;;;;;;;10.33;4.10;;;;;;;;;;5074135;28;20444;-73
2023/03/07 07:52:19;;;;;;;3.83;2.77;;;;;;;;;;5074740;28;20437;-72
2023/03/07 07:54:48;;;;;;;6.50;4.07;;;;;;;;;;5074305;28;20484;-70
2023/03/07 07:57:15;;;;;;;2.40;2.20;;;;;;;;;;5074351;28;20477;-73
2023/03/07 07:59:42;;;;;;;6.67;3.50;;;;;;;;;;5074752;28;20449;-75
2023/03/07 08:02:12;;;;;;;5.07;4.00;;;;;;;;;;5073879;28;20445;-73
2023/03/07 08:04:39;;;;;;;5.60;3.83;;;;;;;;;;5074133;28;20931;-73
2023/03/07 08:07:06;;;;;;;3.27;2.67;;;;;;;;;;5073788;28;20804;-73
2023/03/07 08:09:34;;;;;;;5.13;3.00;;;;;;;;;;5073714;28;20535;-73
2023/03/07 08:12:03;;;;;;;7.33;4.20;;;;;;;;;;5073648;28;20908;-74
2023/03/07 08:14:30;;;;;;;5.20;3.50;;;;;;;;;;5074281;28;20462;-73
2023/03/07 08:16:57;;;;;;;5.47;3.10;;;;;;;;;;5073632;28;20445;-74
2023/03/07 08:19:24;;;;;;;8.00;3.87;;;;;;;;;;5073612;28;20444;-73
2023/03/07 08:21:51;;;;;;;3.33;2.77;;;;;;;;;;5073717;28;20765;-73
2023/03/07 08:24:18;;;;;;;4.93;2.93;;;;;;;;;;5074037;28;20447;-73
2023/03/07 08:26:46;;;;;;;4.67;3.00;;;;;;;;;;5074414;28;20432;-73
2023/03/07 08:29:14;;;;;;;6.40;3.70;;;;;;;;;;5073737;28;20484;-73
2023/03/07 08:31:43;;;;;;;4.93;3.47;;;;;;;;;;5074398;28;20441;-73
2023/03/07 08:34:10;;;;;;;5.57;4.37;;;;;;;;;;5073400;28;21008;-73
2023/03/07 08:36:38;;;;;;;6.40;3.67;;;;;;;;;;5074009;28;20438;-73
2023/03/07 08:39:05;;;;;;;4.23;2.97;;;;;;;;;;5073051;28;20442;-73
2023/03/07 08:41:32;;;;;;;5.50;3.50;;;;;;;;;;5074124;28;20452;-73
2023/03/07 08:43:59;;;;;;;7.70;3.33;;;;;;;;;;5072966;28;20453;-74
2023/03/07 08:46:28;;;;;;;5.57;2.90;;;;;;;;;;5073990;28;20469;-74
2023/03/07 08:48:55;;;;;;;5.43;3.10;;;;;;;;;;5072536;28;20490;-74
2023/03/07 08:51:22;;;;;;;5.10;3.00;;;;;;;;;;5073710;28;20793;-73
2023/03/07 08:53:49;;;;;;;6.10;3.30;;;;;;;;;;5073043;28;20459;-72
2023/03/07 08:56:17;;;;;;;5.07;3.80;;;;;;;;;;5073909;28;20450;-73
2023/03/07 08:58:44;;;;;;;5.00;3.07;;;;;;;;;;5072334;28;20438;-73
2023/03/07 09:01:11;;;;;;;9.47;3.90;;;;;;;;;;5073283;28;20438;-73
2023/03/07 09:03:40;;;;;;;5.77;2.67;;;;;;;;;;5073177;28;20549;-73
2023/03/07 09:06:07;;;;;;;4.90;3.10;;;;;;;;;;5072674;28;20937;-73
2023/03/07 09:08:34;;;;;;;6.30;3.53;;;;;;;;;;5072704;28;20501;-73
2023/03/07 09:11:04;;;;;;;6.30;3.00;;;;;;;;;;5072832;28;20804;-73
2023/03/07 09:13:31;;;;;;;4.50;2.80;;;;;;;;;;5073233;28;20447;-73
2023/03/07 09:15:58;;;;;;;4.40;2.70;;;;;;;;;;5072260;28;20450;-73
2023/03/07 09:18:25;;;;;;;3.33;2.67;;;;;;;;;;5072694;28;20451;-73
2023/03/07 09:20:53;;;;;;;11.57;3.40;;;;;;;;;;5072344;28;20942;-73
2023/03/07 09:23:21;;;;;;;6.77;3.87;;;;;;;;;;5073230;28;20438;-73
2023/03/07 09:25:48;;;;;;;6.47;2.73;;;;;;;;;;5072241;28;20442;-73
2023/03/07 09:28:15;;;;;;;3.40;2.10;;;;;;;;;;5072700;28;20813;-74
2023/03/07 09:30:42;;;;;;;3.57;2.60;;;;;;;;;;5072964;28;20438;-72
2023/03/07 09:33:09;;;;;;;7.80;2.50;;;;;;;;;;5072296;28;20452;-73
2023/03/07 09:35:38;;;;;;;3.33;2.97;;;;;;;;;;5072829;28;20838;-73
2023/03/07 09:38:07;;;;;;;3.77;1.93;;;;;;;;;;5071598;28;20453;-73
2023/03/07 09:40:34;;;;;;;4.60;2.80;;;;;;;;;;5072737;28;20532;-73
2023/03/07 09:43:03;;;;;;;6.20;3.47;;;;;;;;;;5071842;28;20504;-73
2023/03/07 09:45:45;;;;;;;3.63;1.53;;;;;;;;;;5072551;28;20520;-73
2023/03/07 09:48:28;;;;;;;2.87;2.47;;;;;;;;;;5072230;28;20491;-73
2023/03/07 09:50:56;;;;;;;3.87;3.10;;;;;;;;;;5071692;28;20441;-73
2023/03/07 09:53:28;;;;;;;2.50;2.17;;;;;;;;;;5072500;28;20449;-73
2023/03/07 09:55:57;;;;;;;3.43;2.67;;;;;;;;;;5072024;28;20448;-73
2023/03/07 09:58:25;;;;;;;4.03;2.07;;;;;;;;;;5072288;28;20456;-73
2023/03/07 10:00:55;;;;;;;3.83;2.53;;;;;;;;;;5071786;28;20445;-73
2023/03/07 10:03:28;;;;;;;3.10;1.90;;;;;;;;;;5071994;28;20441;-73
2023/03/07 10:05:57;;;;;;;3.23;2.23;;;;;;;;;;5071821;28;20464;-73
2023/03/07 10:08:28;;;;;;;5.10;2.20;;;;;;;;;;5071687;28;20476;-73
2023/03/07 10:10:58;;;;;;;3.63;2.00;;;;;;;;;;5071660;28;20742;-73
2023/03/07 10:13:36;;;;;;;4.53;2.67;;;;;;;;;;5071805;28;20873;-73
2023/03/07 10:16:06;;;;;;;6.27;2.33;;;;;;;;;;5071283;28;20437;-73
2023/03/07 10:18:41;;;;;;;6.83;2.30;;;;;;;;;;5071427;28;20506;-73
2023/03/07 10:21:14;;;;;;;1.90;1.27;;;;;;;;;;5071515;28;20452;-72
2023/03/07 10:23:51;;;;;;;3.53;2.47;;;;;;;;;;5072279;28;20444;-72
2023/03/07 10:26:21;;;;;;;3.33;2.10;;;;;;;;;;5071866;28;20546;-73
2023/03/07 10:28:49;;;;;;;3.10;2.67;;;;;;;;;;5070872;28;20494;-73
2023/03/07 10:31:18;;;;;;;2.70;2.13;;;;;;;;;;5071857;28;20445;-73
2023/03/07 10:33:46;;;;;;;4.83;2.80;;;;;;;;;;5071470;28;20919;-74
2023/03/07 10:36:15;;;;;;;6.27;2.47;;;;;;;;;;5071721;28;20444;-73
2023/03/07 10:38:48;;;;;;;3.60;2.13;;;;;;;;;;5071528;28;20445;-72
2023/03/07 10:41:17;;;;;;;6.10;3.00;;;;;;;;;;5071905;28;20445;-73
2023/03/07 10:43:45;;;;;;;7.10;3.13;;;;;;;;;;5071531;28;20437;-73
2023/03/07 10:46:13;;;;;;;4.13;2.53;;;;;;;;;;5071742;28;20473;-73
2023/03/07 10:48:42;;;;;;;7.67;3.07;;;;;;;;;;5070519;28;20933;-72
2023/03/07 10:51:16;;;;;;;5.90;4.40;;;;;;;;;;5071024;28;20444;-73
2023/03/07 10:53:43;;;;;;;7.03;2.97;;;;;;;;;;5071712;28;20456;-73
2023/03/07 10:56:12;;;;;;;2.33;1.63;;;;;;;;;;5070965;28;20795;-73
2023/03/07 10:58:58;;;;;;;3.03;2.27;;;;;;;;;;5070988;28;20475;-73
2023/03/07 11:01:26;;;;;;;6.27;3.33;;;;;;;;;;5071312;28;20437;-73
2023/03/07 11:03:55;;;;;;;4.83;2.63;;;;;;;;;;5070151;28;20441;-73
2023/03/07 11:06:33;;;;;;;2.83;2.20;;;;;;;;;;5071141;28;20448;-73
2023/03/07 11:09:24;;;;;;;4.17;3.47;;;;;;;;;;5070516;28;20491;-73
2023/03/07 11:11:54;;;;;;;3.23;1.93;;;;;;;;;;5055470;28;20449;-73
2023/03/07 11:14:22;;;;;;;4.93;2.83;;;;;;;;;;5071124;28;20456;-73
2023/03/07 11:16:51;;;;;;;3.70;2.73;;;;;;;;;;5057533;28;20448;-73
2023/03/07 11:19:43;;;;;;;4.47;2.80;;;4.10;99.90;;;;;;5071073;28;20785;-73
2023/03/07 11:22:23;;;;;;;4.20;2.40;;;6.00;38.50;;;;;;5057220;28;20954;-73
2023/03/07 11:24:55;;;;;;;5.53;3.37;;;6.00;37.10;;;;;;5074816;28;20790;-73
2023/03/07 11:27:25;;;;;;;3.90;2.70;;;6.10;38.00;;;;;;5074879;28;20831;-72
2023/03/07 11:30:19;;;;;;;6.07;2.90;;;6.00;38.20;;;;;;5074439;28;20476;-73
2023/03/07 11:32:50;;;;;;;4.83;2.27;;;;;;;;;;5068451;28;20804;-73
2023/03/07 11:35:20;;;;;;;4.30;2.83;;;;;;;;;;5074800;28;20441;-72
2023/03/07 11:37:51;;;;;;;7.83;3.13;;;;;;;;;;5074122;28;20538;-70
2023/03/07 11:40:22;;;;;;;6.00;3.13;;;;;;;;;;5074713;28;20441;-72
2023/03/07 11:42:56;;;;;;;3.53;2.23;;;;;;;;;;5074509;28;20440;-72
2023/03/07 11:45:32;;;;;;;4.00;2.53;;;;;;;;;;5074467;28;20468;-73
2023/03/07 11:48:04;;;;;;;4.23;2.73;;;;;;;;;;5074165;28;20502;-73
2023/03/07 11:50:32;;;;;;;3.60;2.70;;;;;;;;;;5074643;28;20440;-73
2023/03/07 11:53:23;;;;;;;3.50;2.77;;;;;;;;;;5073933;28;20955;-73
2023/03/07 11:55:55;;;;;;;4.30;2.60;;;;;;;;;;5059042;28;20463;-72
2023/03/07 11:58:31;;;;;;;2.53;2.13;;;;;;;;;;5074042;28;20935;-73
2023/03/07 12:01:07;;;;;;;2.57;1.87;;;;;;;;;;5074143;28;20433;-73
2023/03/07 12:03:44;;;;;;;4.13;2.83;;;;;;;;;;5074440;28;20433;-73
2023/03/07 12:06:19;;;;;;;4.37;2.37;;;;;;;;;;5074390;28;20433;-73
2023/03/07 12:08:54;;;;;;;6.50;2.93;;;;;;;;;;5061005;28;20475;-72
2023/03/07 12:11:26;;;;;;;4.47;2.97;;;;;;;;;;5074411;28;20429;-73
2023/03/07 12:13:57;;;;;;;2.83;2.10;;;;;;;;;;5073991;28;20437;-73
2023/03/07 12:16:31;;;;;;;2.70;2.13;;;;;;;;;;5074313;28;20437;-73
2023/03/07 12:19:08;;;;;;;6.23;3.03;;;;;;;;;;5073309;28;20445;-73
2023/03/07 12:21:49;;;;;;;2.30;2.10;;;;;;;;;;5073978;28;20440;-73
2023/03/07 12:24:19;;;;;;;6.90;2.97;;;;;;;;;;5074037;28;20448;-72
2023/03/07 12:26:49;;;;;;;3.70;2.47;;;;;;;;;;5074199;28;20438;-72
2023/03/07 12:29:20;;;;;;;6.40;2.67;;;;;;;;;;5074108;28;20485;-72
2023/03/07 12:31:50;;;;;;;3.00;2.33;;;;;;;;;;5073800;28;20444;-70
2023/03/07 12:34:21;;;;;;;3.13;2.83;;;;;;;;;;5072513;28;20442;-72
2023/03/07 12:36:51;;;;;;;4.57;2.70;;;;;;;;;;5073059;28;20445;-72
2023/03/07 12:39:19;;;;;;;3.70;3.13;;;;;;;;;;5073609;28;20528;-72
2023/03/07 12:41:52;;;;;;;8.90;2.37;;;;;;;;;;5073795;28;20529;-70
2023/03/07 12:44:27;;;;;;;3.57;2.40;;;;;;;;;;5073417;28;20453;-73
2023/03/07 12:46:58;;;;;;;3.57;3.20;;;;;;;;;;5072939;28;20441;-73
2023/03/07 12:49:30;;;;;;;6.93;2.63;;;;;;;;;;5073476;28;20534;-73
2023/03/07 12:52:00;;;;;;;5.63;2.83;;;;;;;;;;5073093;28;20446;-73
2023/03/07 12:54:28;;;;;;;5.37;2.80;;;;;;;;;;5073682;28;20437;-73
2023/03/07 12:56:58;;;;;;;2.20;1.80;;;;;;;;;;5072358;28;20917;-73
2023/03/07 12:59:25;;;;;;;5.00;2.80;;;;;;;;;;5073661;28;20446;-73
2023/03/07 13:01:54;;;;;;;5.70;2.97;;;;;;;;;;5073014;28;20440;-73
2023/03/07 13:04:26;;;;;;;4.23;2.87;;;;;;;;;;5073474;28;20438;-74
2023/03/07 13:06:56;;;;;;;2.23;1.60;;;;;;;;;;5072463;28;20441;-73
2023/03/07 13:09:24;;;;;;;6.70;3.10;;;;;;;;;;5073118;28;20488;-73
2023/03/07 13:12:23;;;;;;;3.23;1.97;;;;;;;;;;5072775;28;20438;-73
2023/03/07 13:14:51;;;;;;;2.67;2.20;;;;;;;;;;5072418;28;20456;-73
2023/03/07 13:17:33;;;;;;;4.87;2.37;;;;;;;;;;5072948;28;20453;-73
2023/03/07 13:20:02;;;;;;;3.57;1.70;;;;;;;;;;5072016;28;20441;-73
2023/03/07 13:22:49;;;;;;;3.30;2.47;;;;;;;;;;5073361;28;20775;-74
2023/03/07 13:25:34;;;;;;;3.30;2.50;;;;;;;;;;5073216;28;20828;-73
2023/03/07 13:28:03;;;;;;;2.57;1.90;;;;;;;;;;5071966;28;20448;-73
2023/03/07 13:30:30;;;;;;;4.37;2.80;;;;;;;;;;5069180;28;20618;-74
2023/03/07 13:32:59;;;;;;;2.20;2.00;;;;;;;;;;5068799;28;20932;-72
2023/03/07 13:35:45;;;;;;;4.23;2.37;;;;;;;;;;5070445;28;20446;-72
2023/03/07 13:38:27;;;;;;;2.73;2.43;;;;;;;;;;5065245;28;20506;-72
2023/03/07 13:40:57;;;;;;;1.73;1.37;;;;;;;;;;5070207;28;20445;-74
2023/03/07 13:43:35;;;;;;;2.83;2.03;;;;;;;;;;5068825;28;20452;-70
2023/03/07 13:46:02;;;;;;;4.20;2.33;;;;;;;;;;5069496;28;20807;-70
2023/03/07 13:48:47;;;;;;;4.87;1.70;;;;;;;;;;5069692;28;20445;-70
2023/03/07 13:51:14;;;;;;;5.33;2.47;;;;;;;;;;5060673;28;20448;-70
2023/03/07 13:53:43;;;;;;;3.00;2.77;;;;;;;;;;5070947;28;20441;-70
2023/03/07 13:56:23;;;;;;;4.97;2.97;;;;;;;;;;5069125;28;20970;-70
2023/03/07 13:58:55;;;;;;;2.30;2.10;;;;;;;;;;5068876;28;20442;-69
2023/03/07 14:01:23;;;;;;;3.80;1.90;;;;;;;;;;5068580;28;20501;-70
2023/03/07 14:03:51;;;;;;;2.50;1.90;;;;;;;;;;5069030;28;20441;-70
2023/03/07 14:06:19;;;;;;;7.57;3.43;;;;;;;;;;5063360;28;20452;-69
2023/03/07 14:08:48;;;;;;;1.87;1.60;;;;;;;;;;5069527;28;20580;-68
2023/03/07 14:11:18;;;;;;;2.77;2.40;;;;;;;;;;5069250;28;20777;-69
2023/03/07 14:13:52;;;;;;;2.73;2.10;;;;;;;;;;5070066;28;20499;-70
2023/03/07 14:16:25;;;;;;;7.17;1.90;;;;;;;;;;5066761;28;20483;-69
2023/03/07 14:18:58;;;;;;;5.47;2.67;;;;;;;;;;5068460;28;20438;-69
2023/03/07 14:21:38;;;;;;;2.27;1.80;;;6.10;37.30;;;;;;5069367;28;20442;-70
2023/03/07 14:24:11;;;;;;;7.93;3.03;;;;;;;;;;5067988;28;20445;-70
2023/03/07 14:26:41;;;;;;;2.60;2.17;;;;;;;;;;5059305;28;20457;-70
2023/03/07 14:29:15;;;;;;;6.23;1.63;;;;;;;;;;5068897;28;20456;-69
2023/03/07 14:31:43;;;;;;;3.20;1.70;;;;;;;;;;5068956;28;20486;-70
2023/03/07 14:34:17;;;;;;;2.10;1.83;;;;;;;;;;5067808;28;21005;-70
2023/03/07 14:36:44;;;;;;;3.93;2.10;;;;;;;;;;5068291;28;20844;-69
2023/03/07 14:39:13;;;;;;;4.20;2.47;;;;;;;;;;5068505;28;20491;-70
2023/03/07 14:41:45;;;;;;;3.17;1.63;;;;;;;;;;5069811;28;20503;-70
2023/03/07 14:44:30;;;;;;;2.43;2.07;;;;;;;;;;5068095;28;20469;-70
2023/03/07 14:47:02;;;;;;;3.17;1.40;;;;;;;;;;5068194;28;20446;-70
2023/03/07 14:49:33;;;;;;;3.60;2.30;;;;;;;;;;5068114;28;20492;-70